Time;durP1;ratioP1;P1;durP2;ratioP2;P2;SDS_P1;SDS_P2;PMS_P1;PMS_P2;Temp;Humidity;BMP_temperature;BMP_pressure;BME280_temperature;BME280_humidity;BME280_pressure;Samples;Min_cycle;Max_cycle;Signal;HPM_P1;HPM_P2
2023/04/10 00:01:08;;;;;;;10.53;9.43;;;12.50;60.80;;;;;;5054618;28;20472;-56
2023/04/10 00:03:35;;;;;;;11.77;10.57;;;12.50;60.80;;;;;;5054066;28;20523;-56
2023/04/10 00:06:02;;;;;;;12.20;9.97;;;12.50;60.60;;;;;;5054394;28;20451;-56
2023/04/10 00:08:29;;;;;;;11.83;10.40;;;12.50;60.50;;;;;;5054460;28;20489;-57
2023/04/10 00:10:55;;;;;;;9.90;8.90;;;12.50;60.50;;;;;;5054366;28;20821;-56
2023/04/10 00:13:23;;;;;;;11.13;9.97;;;12.50;60.50;;;;;;5054074;28;20466;-56
2023/04/10 00:15:50;;;;;;;13.93;11.20;;;12.50;60.80;;;;;;5054333;28;20453;-56
2023/04/10 00:18:18;;;;;;;12.03;10.20;;;12.50;61.20;;;;;;5054152;28;20817;-57
2023/04/10 00:20:44;;;;;;;12.43;10.97;;;12.50;61.50;;;;;;5053963;28;20450;-57
2023/04/10 00:23:11;;;;;;;11.00;9.90;;;12.40;61.70;;;;;;5053948;28;20553;-56
2023/04/10 00:25:38;;;;;;;15.30;10.60;;;12.40;61.60;;;;;;5053890;28;20452;-56
2023/04/10 00:28:05;;;;;;;11.67;10.03;;;12.30;61.60;;;;;;5053741;28;20473;-56
2023/04/10 00:30:31;;;;;;;12.63;10.63;;;12.30;61.90;;;;;;5054077;28;20453;-56
2023/04/10 00:32:58;;;;;;;15.57;10.67;;;12.40;62.10;;;;;;5053922;28;20449;-57
2023/04/10 00:35:26;;;;;;;10.40;9.30;;;12.40;62.30;;;;;;5053730;28;20473;-56
2023/04/10 00:37:55;;;;;;;10.63;9.53;;;12.40;62.60;;;;;;5053635;28;20504;-56
2023/04/10 00:40:21;;;;;;;12.07;9.20;;;12.40;62.80;;;;;;5053624;28;20441;-56
2023/04/10 00:42:48;;;;;;;12.63;10.67;;;12.30;62.90;;;;;;5053195;28;20461;-56
2023/04/10 00:45:15;;;;;;;10.53;9.23;;;12.30;63.10;;;;;;5053328;28;20473;-56
2023/04/10 00:47:41;;;;;;;13.43;10.83;;;12.20;63.20;;;;;;5053634;28;20516;-56
2023/04/10 00:50:09;;;;;;;12.23;10.00;;;12.20;63.00;;;;;;5053472;28;20492;-56
2023/04/10 00:52:37;;;;;;;13.80;9.73;;;12.10;63.00;;;;;;5053624;28;20450;-57
2023/04/10 00:55:05;;;;;;;15.30;12.27;;;12.10;63.60;;;;;;5053335;28;20520;-56
2023/04/10 00:57:33;;;;;;;13.73;11.40;;;12.00;64.20;;;;;;5053415;28;20464;-57
2023/04/10 01:00:00;;;;;;;11.20;10.10;;;12.00;64.50;;;;;;5053427;28;20442;-56
2023/04/10 01:02:27;;;;;;;12.90;10.23;;;12.00;64.80;;;;;;5053460;28;20507;-56
2023/04/10 01:04:54;;;;;;;12.70;10.63;;;12.00;65.10;;;;;;5053311;28;20474;-56
2023/04/10 01:07:31;;;;;;;14.50;9.50;;;11.90;65.40;;;;;;5053018;28;20449;-57
2023/04/10 01:10:03;;;;;;;11.63;8.97;;;11.90;66.10;;;;;;5053289;28;20535;-57
2023/04/10 01:12:45;;;;;;;12.40;8.87;;;11.90;66.70;;;;;;5053271;28;20438;-57
2023/04/10 01:15:15;;;;;;;12.03;9.37;;;11.80;66.50;;;;;;5053194;28;20465;-56
2023/04/10 01:17:50;;;;;;;10.90;9.37;;;11.80;66.70;;;;;;5053269;28;20434;-57
2023/04/10 01:20:22;;;;;;;10.43;8.70;;;11.80;67.00;;;;;;5053223;28;20774;-57
2023/04/10 01:23:12;;;;;;;9.50;8.50;;;11.80;67.20;;;;;;5053139;28;20438;-56
2023/04/10 01:25:45;;;;;;;10.50;8.40;;;11.80;67.30;;;;;;5052894;28;20908;-56
2023/04/10 01:28:38;;;;;;;10.87;8.83;;;11.80;67.10;;;;;;5053052;28;20438;-56
2023/04/10 01:31:10;;;;;;;9.97;8.03;;;11.80;67.20;;;;;;5053125;28;20434;-57
2023/04/10 01:33:44;;;;;;;11.13;8.50;;;11.80;67.70;;;;;;5053083;28;20497;-56
2023/04/10 01:36:12;;;;;;;9.63;8.43;;;11.80;67.70;;;;;;5053102;28;20853;-56
2023/04/10 01:38:43;;;;;;;8.50;7.70;;;11.70;67.80;;;;;;5053085;28;20449;-56
2023/04/10 01:41:10;;;;;;;9.43;8.20;;;11.70;69.00;;;;;;5054635;28;20856;-56
2023/04/10 01:43:40;;;;;;;9.47;8.50;;;11.80;68.90;;;;;;5056959;28;20466;-56
2023/04/10 01:46:09;;;;;;;9.13;8.20;;;11.70;69.30;;;;;;5057505;28;20521;-57
2023/04/10 01:48:36;;;;;;;10.47;7.43;;;11.70;69.80;;;;;;5056812;28;20532;-56
2023/04/10 01:51:07;;;;;;;8.87;7.97;;;11.70;69.60;;;;;;5056789;28;20446;-56
2023/04/10 01:53:35;;;;;;;8.97;8.03;;;11.70;69.20;;;;;;5056758;28;20465;-56
2023/04/10 01:56:02;;;;;;;10.57;8.60;;;11.80;68.80;;;;;;5056650;28;20445;-57
2023/04/10 01:58:30;;;;;;;13.23;9.60;;;11.70;69.00;;;;;;5056727;28;20452;-57
2023/04/10 02:00:56;;;;;;;9.57;8.47;;;11.70;70.20;;;;;;5056343;28;20826;-57
2023/04/10 02:03:24;;;;;;;10.80;9.23;;;11.80;69.10;;;;;;5056514;28;20472;-56
2023/04/10 02:06:01;;;;;;;10.00;7.57;;;11.70;69.00;;;;;;5056213;28;20967;-57
2023/04/10 02:08:33;;;;;;;9.40;8.50;;;11.80;68.80;;;;;;5056491;28;20429;-57
2023/04/10 02:11:10;;;;;;;10.10;8.20;;;11.70;68.60;;;;;;5056415;28;20426;-56
2023/04/10 02:13:40;;;;;;;10.40;8.50;;;11.70;68.30;;;;;;5056397;28;20461;-56
2023/04/10 02:16:08;;;;;;;9.93;8.93;;;11.70;68.40;;;;;;5056581;28;20456;-57
2023/04/10 02:18:38;;;;;;;10.20;9.17;;;11.60;69.20;;;;;;5056244;28;20477;-56
2023/04/10 02:21:06;;;;;;;11.87;8.60;;;11.60;68.50;;;;;;5056233;28;20441;-56
2023/04/10 02:23:33;;;;;;;8.70;7.80;;;11.60;68.50;;;;;;5056175;28;20465;-56
2023/04/10 02:26:06;;;;;;;12.53;9.70;;;11.50;68.50;;;;;;5055919;28;20959;-57
2023/04/10 02:28:33;;;;;;;10.40;9.03;;;11.50;68.90;;;;;;5056049;28;20430;-56
2023/04/10 02:30:59;;;;;;;11.33;8.80;;;11.40;69.00;;;;;;5056061;28;20449;-56
2023/04/10 02:33:26;;;;;;;10.03;9.03;;;11.40;69.20;;;;;;5056106;28;20470;-56
2023/04/10 02:35:54;;;;;;;10.20;8.90;;;11.40;69.40;;;;;;5055688;28;20445;-56
2023/04/10 02:38:21;;;;;;;11.00;9.40;;;11.30;69.60;;;;;;5055951;28;20454;-56
2023/04/10 02:40:49;;;;;;;13.80;9.70;;;11.30;69.90;;;;;;5055701;28;20874;-56
2023/04/10 02:43:15;;;;;;;11.10;9.03;;;11.30;70.10;;;;;;5055838;28;20434;-56
2023/04/10 02:45:42;;;;;;;11.53;9.77;;;11.30;70.20;;;;;;5055922;28;20449;-56
2023/04/10 02:48:09;;;;;;;9.70;8.70;;;11.20;70.00;;;;;;5055748;28;20485;-56
2023/04/10 02:50:36;;;;;;;9.90;8.90;;;11.20;69.80;;;;;;5055699;28;20572;-56
2023/04/10 02:53:04;;;;;;;10.80;9.70;;;11.20;70.40;;;;;;5054396;28;20499;-56
2023/04/10 02:55:31;;;;;;;10.87;9.17;;;11.10;70.30;;;;;;5055660;28;20452;-56
2023/04/10 02:57:57;;;;;;;13.00;9.23;;;11.10;70.60;;;;;;5055568;28;20449;-57
2023/04/10 03:00:24;;;;;;;10.13;9.13;;;11.10;71.10;;;;;;5055501;28;20441;-56
2023/04/10 03:02:52;;;;;;;10.57;9.50;;;11.10;71.30;;;;;;5055128;28;20955;-56
2023/04/10 03:05:19;;;;;;;9.93;8.93;;;11.10;71.40;;;;;;5055384;28;20531;-56
2023/04/10 03:07:45;;;;;;;10.77;9.67;;;11.00;71.30;;;;;;5055194;28;20452;-56
2023/04/10 03:10:13;;;;;;;14.03;9.73;;;11.00;71.80;;;;;;5055242;28;20482;-56
2023/04/10 03:12:40;;;;;;;10.80;9.20;;;11.00;72.20;;;;;;5055250;28;20615;-56
2023/04/10 03:15:08;;;;;;;11.37;10.27;;;11.00;72.40;;;;;;5055246;28;20478;-56
2023/04/10 03:17:34;;;;;;;11.97;9.30;;;11.00;72.70;;;;;;5055212;28;20453;-56
2023/04/10 03:20:01;;;;;;;10.40;8.97;;;11.00;72.70;;;;;;5055183;28;20495;-56
2023/04/10 03:22:30;;;;;;;11.43;9.80;;;10.90;72.60;;;;;;5055187;28;20449;-56
2023/04/10 03:24:57;;;;;;;10.60;9.30;;;10.90;72.50;;;;;;5055048;28;20557;-56
2023/04/10 03:27:25;;;;;;;10.63;9.53;;;10.90;72.80;;;;;;5054685;28;20935;-56
2023/04/10 03:29:52;;;;;;;12.60;10.23;;;10.90;73.20;;;;;;5054836;28;20488;-56
2023/04/10 03:32:19;;;;;;;12.60;10.40;;;10.90;73.50;;;;;;5055004;28;20454;-56
2023/04/10 03:34:46;;;;;;;12.00;10.60;;;10.80;73.40;;;;;;5054497;28;20995;-57
2023/04/10 03:37:12;;;;;;;13.00;11.10;;;10.80;73.30;;;;;;5054552;28;20943;-56
2023/04/10 03:39:39;;;;;;;13.73;11.33;;;10.70;73.30;;;;;;5054560;28;20795;-56
2023/04/10 03:42:06;;;;;;;12.00;10.43;;;10.70;73.50;;;;;;5054499;28;20493;-56
2023/04/10 03:44:34;;;;;;;10.80;9.70;;;10.70;73.50;;;;;;5054705;28;20496;-56
2023/04/10 03:47:01;;;;;;;10.90;9.63;;;10.60;73.80;;;;;;5054812;28;20515;-57
2023/04/10 03:49:28;;;;;;;10.70;9.27;;;10.60;74.90;;;;;;5054580;28;20482;-56
2023/04/10 03:51:54;;;;;;;11.40;9.97;;;10.50;74.10;;;;;;5054669;28;20441;-57
2023/04/10 03:54:21;;;;;;;10.73;9.73;;;10.40;74.10;;;;;;5054373;28;20560;-57
2023/04/10 03:56:48;;;;;;;12.67;9.33;;;10.40;74.50;;;;;;5054509;28;20458;-56
2023/04/10 03:59:14;;;;;;;9.10;8.20;;;10.30;74.60;;;;;;5054472;28;20460;-56
2023/04/10 04:01:42;;;;;;;10.63;9.53;;;10.20;74.50;;;;;;5054441;28;20450;-56
2023/04/10 04:04:09;;;;;;;11.63;8.80;;;10.10;74.70;;;;;;5053974;28;20474;-56
2023/04/10 04:06:36;;;;;;;10.60;9.30;;;10.10;75.10;;;;;;5054275;28;20449;-56
2023/04/10 04:09:03;;;;;;;9.67;8.70;;;10.00;75.50;;;;;;5054191;28;20449;-56
2023/04/10 04:11:30;;;;;;;11.53;8.43;;;10.00;76.10;;;;;;5054124;28;20449;-56
2023/04/10 04:13:56;;;;;;;9.63;8.63;;;10.00;76.90;;;;;;5053762;28;20469;-56
2023/04/10 04:16:23;;;;;;;10.50;9.40;;;10.00;77.30;;;;;;5054057;28;20446;-56
2023/04/10 04:18:51;;;;;;;11.30;10.10;;;10.00;77.80;;;;;;5053761;28;20936;-56
2023/04/10 04:21:18;;;;;;;12.80;11.47;;;10.00;78.20;;;;;;5054071;28;20446;-55
2023/04/10 04:23:45;;;;;;;11.27;9.97;;;10.00;78.50;;;;;;5053574;28;20990;-56
2023/04/10 04:26:11;;;;;;;12.77;9.90;;;10.00;79.00;;;;;;5053902;28;20446;-56
2023/04/10 04:28:38;;;;;;;11.77;10.03;;;10.00;79.40;;;;;;5053999;28;20642;-55
2023/04/10 04:31:05;;;;;;;13.60;11.23;;;10.10;79.70;;;;;;5053820;28;20485;-56
2023/04/10 04:33:32;;;;;;;12.27;11.07;;;10.10;79.80;;;;;;5053830;28;20470;-56
2023/04/10 04:36:00;;;;;;;10.80;9.70;;;10.10;79.70;;;;;;5053693;28;20448;-56
2023/04/10 04:38:26;;;;;;;11.23;10.00;;;10.10;79.60;;;;;;5054011;28;20511;-56
2023/04/10 04:40:53;;;;;;;13.20;10.47;;;10.10;79.80;;;;;;5053471;28;20454;-56
2023/04/10 04:43:20;;;;;;;10.53;9.23;;;10.10;79.90;;;;;;5053735;28;20480;-56
2023/04/10 04:45:46;;;;;;;12.30;11.00;;;10.10;79.70;;;;;;5053612;28;20457;-56
2023/04/10 04:48:13;;;;;;;13.63;10.27;;;10.10;79.40;;;;;;5053657;28;20450;-56
2023/04/10 04:50:40;;;;;;;12.47;10.90;;;10.10;79.50;;;;;;5053555;28;20477;-56
2023/04/10 04:53:08;;;;;;;15.27;10.90;;;10.10;79.40;;;;;;5053361;28;20529;-56
2023/04/10 04:55:35;;;;;;;11.97;10.77;;;10.10;78.60;;;;;;5053546;28;20499;-56
2023/04/10 04:58:02;;;;;;;12.43;10.73;;;10.00;78.40;;;;;;5053467;28;20445;-57
2023/04/10 05:00:28;;;;;;;11.50;10.10;;;10.00;78.60;;;;;;5053442;28;20446;-57
2023/04/10 05:02:55;;;;;;;12.40;10.53;;;9.90;80.30;;;;;;5053466;28;20454;-57
2023/04/10 05:05:22;;;;;;;13.23;9.97;;;9.90;80.50;;;;;;5053180;28;20982;-56
2023/04/10 05:07:49;;;;;;;10.63;9.53;;;9.90;80.80;;;;;;5053462;28;20446;-57
2023/04/10 05:10:17;;;;;;;13.00;10.70;;;9.90;81.30;;;;;;5053502;28;20814;-57
2023/04/10 05:12:43;;;;;;;12.67;10.40;;;9.90;81.30;;;;;;5053715;28;20449;-57
2023/04/10 05:15:10;;;;;;;11.83;10.63;;;9.90;81.10;;;;;;5052985;28;20489;-57
2023/04/10 05:17:37;;;;;;;12.50;9.90;;;10.00;80.20;;;;;;5054453;28;20943;-57
2023/04/10 05:20:04;;;;;;;10.70;9.60;;;10.00;80.40;;;;;;5054400;28;20947;-57
2023/04/10 05:22:31;;;;;;;11.60;9.90;;;10.00;80.50;;;;;;5053918;28;20453;-57
2023/04/10 05:24:58;;;;;;;10.70;9.60;;;10.00;80.10;;;;;;5053647;28;20476;-57
2023/04/10 05:27:27;;;;;;;11.07;9.90;;;10.00;79.60;;;;;;5053180;28;20536;-57
2023/04/10 05:29:53;;;;;;;10.63;8.80;;;9.90;79.70;;;;;;5053006;28;20477;-57
2023/04/10 05:32:20;;;;;;;11.00;9.90;;;9.80;80.00;;;;;;5053188;28;20445;-57
2023/04/10 05:34:47;;;;;;;11.13;10.00;;;9.70;81.30;;;;;;5053077;28;20473;-57
2023/04/10 05:37:13;;;;;;;13.43;10.47;;;9.70;81.30;;;;;;5052760;28;20821;-57
2023/04/10 05:39:40;;;;;;;9.80;8.73;;;9.70;82.00;;;;;;5053023;28;20465;-57
2023/04/10 05:42:07;;;;;;;11.17;9.70;;;9.70;82.40;;;;;;5052744;28;20476;-57
2023/04/10 05:44:35;;;;;;;12.03;10.53;;;9.70;82.70;;;;;;5052915;28;20805;-57
2023/04/10 05:47:01;;;;;;;12.70;10.90;;;9.70;82.80;;;;;;5052897;28;20456;-57
2023/04/10 05:49:28;;;;;;;11.50;9.60;;;9.80;83.20;;;;;;5052865;28;20457;-57
2023/04/10 05:51:55;;;;;;;11.57;10.10;;;9.80;83.60;;;;;;5052635;28;20465;-57
2023/04/10 05:54:21;;;;;;;10.90;9.77;;;9.90;84.10;;;;;;5052831;28;20553;-57
2023/04/10 05:56:48;;;;;;;10.70;9.60;;;10.00;83.00;;;;;;5052506;28;20964;-57
2023/04/10 05:59:15;;;;;;;11.90;9.87;;;10.10;83.20;;;;;;5052837;28;20446;-56
2023/04/10 06:01:46;;;;;;;13.50;9.97;;;10.10;83.00;;;;;;5052506;28;20849;-57
2023/04/10 06:04:12;;;;;;;11.67;10.47;;;10.20;82.10;;;;;;5052789;28;20476;-57
2023/04/10 06:06:40;;;;;;;11.70;10.57;;;10.20;82.80;;;;;;5052734;28;20449;-57
2023/04/10 06:09:06;;;;;;;14.37;10.07;;;10.20;83.40;;;;;;5052776;28;20445;-57
2023/04/10 06:11:33;;;;;;;11.20;9.77;;;10.30;83.40;;;;;;5052621;28;20485;-57
2023/04/10 06:14:00;;;;;;;10.67;9.53;;;10.40;83.20;;;;;;5052628;28;20473;-57
2023/04/10 06:16:27;;;;;;;12.47;10.83;;;10.50;83.20;;;;;;5052402;28;20453;-57
2023/04/10 06:18:55;;;;;;;11.40;10.30;;;10.60;82.90;;;;;;5052669;28;20522;-57
2023/04/10 06:21:22;;;;;;;11.40;10.20;;;10.70;81.70;;;;;;5052690;28;20445;-57
2023/04/10 06:23:48;;;;;;;11.80;9.90;;;10.80;81.20;;;;;;5053407;28;20465;-57
2023/04/10 06:26:15;;;;;;;11.83;10.63;;;10.90;81.30;;;;;;5053134;28;20464;-57
2023/04/10 06:28:42;;;;;;;11.43;10.13;;;11.00;81.80;;;;;;5056152;28;20449;-57
2023/04/10 06:31:09;;;;;;;13.80;10.07;;;11.10;81.40;;;;;;5055948;28;20558;-57
2023/04/10 06:33:36;;;;;;;10.17;8.97;;;11.30;80.10;;;;;;5055947;28;20508;-57
2023/04/10 06:36:05;;;;;;;10.90;9.50;;;11.40;79.30;;;;;;5056027;28;20441;-57
2023/04/10 06:38:36;;;;;;;10.30;9.30;;;11.50;78.80;;;;;;5055647;28;20963;-57
2023/04/10 06:41:03;;;;;;;10.30;9.20;;;11.70;77.00;;;;;;5055516;28;20936;-57
2023/04/10 06:43:31;;;;;;;11.47;8.90;;;11.80;75.70;;;;;;5055503;28;20894;-57
2023/04/10 06:45:57;;;;;;;9.37;8.47;;;11.90;75.00;;;;;;5055911;28;20493;-57
2023/04/10 06:48:24;;;;;;;10.97;9.87;;;12.00;75.40;;;;;;5055814;28;20442;-57
2023/04/10 06:50:51;;;;;;;11.67;9.60;;;12.20;75.70;;;;;;5055619;28;20499;-57
2023/04/10 06:53:19;;;;;;;10.20;9.20;;;12.30;75.70;;;;;;5055605;28;20856;-57
2023/04/10 06:55:46;;;;;;;10.53;9.53;;;12.50;75.20;;;;;;5055522;28;20962;-57
2023/04/10 06:58:13;;;;;;;12.00;10.40;;;12.60;74.20;;;;;;5055569;28;20823;-57
2023/04/10 07:00:40;;;;;;;11.00;9.87;;;12.70;73.70;;;;;;5055524;28;20449;-57
2023/04/10 07:03:06;;;;;;;10.90;9.80;;;12.80;73.20;;;;;;5055370;28;20456;-57
2023/04/10 07:05:33;;;;;;;10.23;9.23;;;12.90;73.40;;;;;;5055436;28;20536;-57
2023/04/10 07:08:00;;;;;;;12.63;10.47;;;13.00;72.40;;;;;;5055150;28;21053;-57
2023/04/10 07:10:28;;;;;;;12.80;10.33;;;13.10;72.00;;;;;;5054975;28;21017;-57
2023/04/10 07:12:56;;;;;;;10.50;8.70;;;13.20;71.70;;;;;;5055378;28;20449;-57
2023/04/10 07:15:22;;;;;;;10.93;9.70;;;13.20;71.10;;;;;;5055241;28;20519;-57
2023/04/10 07:17:49;;;;;;;11.33;10.23;;;13.30;70.90;;;;;;5056031;28;20456;-57
2023/04/10 07:20:16;;;;;;;12.47;10.27;;;13.40;70.70;;;;;;5055196;28;20496;-57
2023/04/10 07:22:43;;;;;;;10.57;9.47;;;13.40;70.20;;;;;;5055882;28;20445;-57
2023/04/10 07:25:10;;;;;;;11.10;10.00;;;13.50;69.50;;;;;;5054729;28;20469;-57
2023/04/10 07:27:38;;;;;;;11.10;10.00;;;13.60;69.50;;;;;;5055094;28;20453;-57
2023/04/10 07:30:06;;;;;;;10.37;9.10;;;13.60;69.00;;;;;;5055033;28;20450;-58
2023/04/10 07:32:33;;;;;;;15.07;13.47;;;13.60;68.70;;;;;;5055095;28;20452;-57
2023/04/10 07:35:00;;;;;;;12.70;10.70;;;13.70;68.30;;;;;;5055094;28;20909;-57
2023/04/10 07:37:26;;;;;;;11.00;9.90;;;13.80;68.20;;;;;;5054776;28;20852;-57
2023/04/10 07:39:53;;;;;;;14.27;10.50;;;13.90;68.20;;;;;;5054014;28;20868;-57
2023/04/10 07:42:20;;;;;;;9.73;8.83;;;14.00;68.10;;;;;;5054370;28;20849;-57
2023/04/10 07:44:48;;;;;;;10.83;9.80;;;14.20;66.20;;;;;;5054632;28;20519;-57
2023/04/10 07:47:15;;;;;;;13.13;9.77;;;14.30;65.80;;;;;;5054384;28;20448;-58
2023/04/10 07:49:42;;;;;;;12.40;9.40;;;14.50;66.20;;;;;;5054437;28;20974;-57
2023/04/10 07:52:09;;;;;;;9.53;8.57;;;14.70;65.60;;;;;;5054596;28;20481;-57
2023/04/10 07:54:36;;;;;;;8.10;7.30;;;14.80;62.00;;;;;;5054499;28;20496;-57
2023/04/10 07:57:02;;;;;;;9.30;7.27;;;14.70;58.80;;;;;;5054386;28;20450;-57
2023/04/10 07:59:29;;;;;;;9.23;7.23;;;14.70;59.10;;;;;;5054962;28;20950;-57
2023/04/10 08:01:57;;;;;;;8.23;7.43;;;14.50;56.40;;;;;;5054406;28;20445;-57
2023/04/10 08:04:24;;;;;;;7.43;6.80;;;14.50;57.70;;;;;;5054316;28;20477;-57
2023/04/10 08:06:51;;;;;;;7.40;6.70;;;14.60;56.90;;;;;;5054347;28;20489;-57
2023/04/10 08:09:17;;;;;;;8.20;7.40;;;14.40;57.40;;;;;;5054409;28;20480;-57
2023/04/10 08:11:44;;;;;;;7.03;6.33;;;14.40;58.10;;;;;;5054253;28;20481;-57
2023/04/10 08:14:12;;;;;;;10.77;7.93;;;14.40;57.30;;;;;;5054191;28;20457;-57
2023/04/10 08:16:39;;;;;;;8.00;7.20;;;14.50;57.20;;;;;;5054151;28;20450;-57
2023/04/10 08:19:08;;;;;;;8.20;7.50;;;14.40;56.80;;;;;;5054222;28;20457;-57
2023/04/10 08:21:35;;;;;;;6.87;6.20;;;14.60;56.80;;;;;;5054211;28;20449;-57
2023/04/10 08:24:03;;;;;;;7.83;7.13;;;14.60;56.10;;;;;;5054103;28;20484;-57
2023/04/10 08:26:30;;;;;;;7.87;7.03;;;14.70;56.60;;;;;;5054062;28;20452;-57
2023/04/10 08:28:58;;;;;;;8.97;6.13;;;14.70;55.50;;;;;;5054452;28;20450;-57
2023/04/10 08:31:26;;;;;;;6.73;5.87;;;14.70;55.30;;;;;;5053918;28;20562;-58
2023/04/10 08:33:53;;;;;;;7.87;6.10;;;14.60;54.50;;;;;;5054187;28;20552;-57
2023/04/10 08:36:21;;;;;;;7.60;6.57;;;14.50;54.50;;;;;;5053670;28;20450;-57
2023/04/10 08:38:48;;;;;;;6.40;5.80;;;14.40;55.40;;;;;;5053844;28;20453;-57
2023/04/10 08:41:16;;;;;;;7.07;5.73;;;14.40;55.40;;;;;;5053620;28;20461;-57
2023/04/10 08:43:44;;;;;;;6.80;6.10;;;14.40;56.30;;;;;;5053553;28;20496;-57
2023/04/10 08:46:11;;;;;;;7.07;6.37;;;14.50;55.30;;;;;;5053329;28;21010;-57
2023/04/10 08:48:39;;;;;;;6.40;5.80;;;14.70;55.90;;;;;;5053416;28;20993;-57
2023/04/10 08:51:09;;;;;;;6.20;5.50;;;14.80;55.50;;;;;;5052680;28;20492;-57
2023/04/10 08:53:41;;;;;;;6.73;6.13;;;14.80;55.00;;;;;;5053634;28;20466;-57
2023/04/10 08:56:11;;;;;;;6.80;6.20;;;14.80;55.40;;;;;;5053492;28;20465;-57
2023/04/10 08:58:39;;;;;;;7.57;6.50;;;15.00;55.50;;;;;;5053567;28;20445;-57
2023/04/10 09:01:06;;;;;;;7.03;5.90;;;15.20;54.80;;;;;;5053063;28;20816;-58
2023/04/10 09:03:33;;;;;;;5.87;5.37;;;15.50;54.90;;;;;;5053057;28;20845;-57
2023/04/10 09:06:03;;;;;;;6.23;5.63;;;15.60;53.00;;;;;;5053388;28;20442;-57
2023/04/10 09:08:29;;;;;;;6.70;6.10;;;15.90;53.40;;;;;;5053596;28;20528;-57
2023/04/10 09:10:58;;;;;;;6.27;5.77;;;16.00;53.20;;;;;;5053297;28;20896;-57
2023/04/10 09:13:39;;;;;;;5.37;4.87;;;16.20;52.00;;;;;;5053245;28;20469;-57
2023/04/10 09:16:06;;;;;;;6.10;5.53;;;16.40;51.60;;;;;;5053206;28;20445;-57
2023/04/10 09:18:47;;;;;;;5.77;5.27;;;16.60;50.70;;;;;;5053205;28;20456;-57
2023/04/10 09:21:16;;;;;;;5.57;5.07;;;16.80;50.10;;;;;;5053255;28;20456;-57
2023/04/10 09:23:43;;;;;;;5.40;4.97;;;17.00;50.00;;;;;;5053091;28;20504;-57
2023/04/10 09:26:33;;;;;;;5.47;5.00;;;17.10;48.90;;;;;;5053153;28;20454;-57
2023/04/10 09:29:01;;;;;;;5.80;5.30;;;17.20;48.50;;;;;;5048813;28;20477;-57
2023/04/10 09:31:30;;;;;;;5.60;5.10;;;17.20;48.80;;;;;;5052735;28;20837;-57
2023/04/10 09:34:12;;;;;;;5.70;5.20;;;17.30;48.20;;;;;;5053037;28;20475;-57
2023/04/10 09:36:40;;;;;;;4.97;4.57;;;17.40;47.70;;;;;;5053121;28;20434;-58
2023/04/10 09:39:07;;;;;;;5.93;5.40;;;17.50;47.40;;;;;;5053008;28;20511;-57
2023/04/10 09:41:35;;;;;;;5.00;4.60;;;17.40;47.30;;;;;;5052792;28;20472;-57
2023/04/10 09:44:07;;;;;;;5.93;5.43;;;17.50;47.40;;;;;;5052868;28;20469;-57
2023/04/10 09:46:33;;;;;;;4.80;4.40;;;17.50;46.70;;;;;;5053148;28;20482;-58
2023/04/10 09:49:03;;;;;;;4.97;4.50;;;17.60;47.10;;;;;;5052992;28;20519;-58
2023/04/10 09:51:32;;;;;;;5.67;5.27;;;17.70;46.50;;;;;;5052858;28;20508;-57
2023/04/10 09:54:00;;;;;;;5.33;4.93;;;17.80;47.00;;;;;;5052800;28;20528;-58
2023/04/10 09:56:28;;;;;;;4.93;4.20;;;18.00;46.30;;;;;;5052848;28;20477;-58
2023/04/10 09:58:58;;;;;;;5.40;4.90;;;18.10;46.30;;;;;;5052551;28;20940;-58
2023/04/10 10:01:27;;;;;;;5.47;4.97;;;18.30;46.50;;;;;;5053633;28;20429;-58
2023/04/10 10:03:54;;;;;;;5.67;4.60;;;18.40;45.20;;;;;;5056528;28;20480;-58
2023/04/10 10:06:22;;;;;;;4.70;4.30;;;18.50;44.70;;;;;;5056613;28;20453;-57
2023/04/10 10:08:49;;;;;;;5.60;5.10;;;18.80;45.20;;;;;;5056294;28;20963;-58
2023/04/10 10:11:21;;;;;;;5.13;4.73;;;19.00;45.30;;;;;;5056128;28;21007;-58
2023/04/10 10:13:52;;;;;;;5.03;4.53;;;19.20;43.80;;;;;;5056605;28;20523;-58
2023/04/10 10:16:25;;;;;;;4.90;4.50;;;19.20;43.30;;;;;;5056394;28;20915;-58
2023/04/10 10:18:57;;;;;;;5.23;4.73;;;19.30;43.80;;;;;;5057211;28;20429;-58
2023/04/10 10:21:25;;;;;;;4.70;4.30;;;19.60;43.00;;;;;;5056364;28;20468;-58
2023/04/10 10:23:53;;;;;;;4.50;4.10;;;19.90;43.00;;;;;;5056205;28;20518;-58
2023/04/10 10:26:22;;;;;;;4.40;4.10;;;20.10;43.20;;;;;;5056142;28;20457;-58
2023/04/10 10:28:50;;;;;;;4.30;4.00;;;20.30;42.30;;;;;;5055821;28;21013;-58
2023/04/10 10:31:21;;;;;;;4.13;3.83;;;20.60;42.80;;;;;;5055748;28;21015;-58
2023/04/10 10:33:48;;;;;;;5.23;4.73;;;20.60;39.70;;;;;;5055965;28;20564;-58
2023/04/10 10:36:17;;;;;;;4.33;3.93;;;20.60;41.00;;;;;;5055995;28;20457;-57
2023/04/10 10:38:53;;;;;;;5.17;4.30;;;20.70;41.00;;;;;;5056012;28;20449;-58
2023/04/10 10:41:27;;;;;;;6.00;3.97;;;20.80;41.60;;;;;;5055894;28;20448;-57
2023/04/10 10:44:04;;;;;;;4.00;3.70;;;20.80;40.30;;;;;;5055840;28;20468;-57
2023/04/10 10:46:37;;;;;;;3.50;3.20;;;20.50;39.20;;;;;;5055597;28;20785;-57
2023/04/10 10:49:04;;;;;;;4.37;4.07;;;20.30;40.40;;;;;;5055802;28;20453;-58
2023/04/10 10:51:45;;;;;;;4.50;3.47;;;20.10;40.30;;;;;;5055369;28;20572;-58
2023/04/10 10:54:31;;;;;;;3.90;3.60;;;19.70;40.40;;;;;;5055623;28;20568;-58
2023/04/10 10:56:58;;;;;;;4.27;3.87;;;19.50;42.00;;;;;;5055657;28;20456;-58
2023/04/10 10:59:56;;;;;;;3.63;3.33;;;19.40;42.10;;;;;;5055607;28;20531;-58
2023/04/10 11:02:24;;;;;;;4.07;3.77;;;19.50;41.40;;;;;;5055662;28;20500;-58
2023/04/10 11:04:51;;;;;;;4.03;3.73;;;19.50;41.90;;;;;;5055364;28;20473;-57
2023/04/10 11:07:18;;;;;;;3.90;3.60;;;19.50;41.10;;;;;;5055624;28;20453;-57
2023/04/10 11:09:50;;;;;;;3.40;3.20;;;19.50;42.30;;;;;;5055734;28;20455;-57
2023/04/10 11:12:22;;;;;;;3.97;3.67;;;19.50;42.60;;;;;;5055372;28;20482;-57
2023/04/10 11:14:58;;;;;;;3.13;2.83;;;19.40;41.60;;;;;;5054839;28;20465;-57
2023/04/10 11:17:49;;;;;;;3.50;3.20;;;19.30;41.30;;;;;;5055473;28;20433;-57
2023/04/10 11:20:16;;;;;;;3.13;2.83;;;19.40;42.50;;;;;;5054984;28;21007;-57
2023/04/10 11:23:09;;;;;;;4.00;3.60;;;19.50;41.50;;;;;;5055367;28;20580;-57
2023/04/10 11:25:50;;;;;;;6.87;2.90;;;19.60;42.40;;;;;;5055135;28;20481;-57
2023/04/10 11:28:38;;;;;;;3.23;3.03;;;19.80;41.90;;;;;;5055086;28;20498;-57
2023/04/10 11:31:17;;;;;;;3.63;3.33;;;19.90;41.40;;;;;;5050296;28;20527;-57
2023/04/10 11:33:45;;;;;;;3.40;3.10;;;19.80;40.60;;;;;;5056091;28;20474;-57
2023/04/10 11:36:16;;;;;;;3.10;2.90;;;19.80;41.00;;;;;;5055232;28;20830;-57
2023/04/10 11:38:53;;;;;;;4.03;2.83;;;19.80;41.50;;;;;;5055007;28;20465;-58
2023/04/10 11:41:20;;;;;;;3.30;3.10;;;19.70;40.80;;;;;;5054661;28;20471;-58
2023/04/10 11:43:51;;;;;;;3.37;3.07;;;19.80;41.20;;;;;;5054378;28;20995;-57
2023/04/10 11:46:18;;;;;;;3.30;3.10;;;19.90;41.40;;;;;;5054788;28;20426;-58
2023/04/10 11:48:46;;;;;;;3.43;3.20;;;19.70;41.00;;;;;;5054655;28;20453;-58
2023/04/10 11:51:14;;;;;;;3.03;2.83;;;19.70;40.50;;;;;;5054596;28;20460;-57
2023/04/10 11:53:41;;;;;;;2.87;2.67;;;19.70;41.20;;;;;;5054406;28;20493;-58
2023/04/10 11:56:16;;;;;;;2.93;2.73;;;19.70;40.20;;;;;;5054512;28;20473;-58
2023/04/10 11:58:43;;;;;;;3.10;2.90;;;19.70;40.80;;;;;;5054480;28;20524;-57
2023/04/10 12:01:13;;;;;;;2.60;2.40;;;19.80;41.00;;;;;;5054462;28;20476;-57
2023/04/10 12:03:41;;;;;;;3.37;3.07;;;20.00;41.60;;;;;;5055258;28;20492;-58
2023/04/10 12:06:11;;;;;;;2.90;2.70;;;20.20;41.20;;;;;;5053993;28;20956;-58
2023/04/10 12:08:39;;;;;;;4.30;3.00;;;20.20;40.10;;;;;;5054524;28;20453;-58
2023/04/10 12:11:07;;;;;;;2.90;2.70;;;20.20;38.40;;;;;;5053940;28;20963;-58
2023/04/10 12:13:33;;;;;;;2.73;2.53;;;20.30;39.60;;;;;;5053802;28;20999;-57
2023/04/10 12:16:06;;;;;;;3.87;3.47;;;20.50;39.50;;;;;;5054154;28;20450;-57
2023/04/10 12:18:33;;;;;;;3.60;3.30;;;20.80;39.00;;;;;;5054140;28;20437;-58
2023/04/10 12:21:00;;;;;;;2.90;2.70;;;21.30;39.20;;;;;;5053726;28;20943;-58
2023/04/10 12:23:29;;;;;;;2.80;2.60;;;21.60;37.10;;;;;;5053914;28;20516;-58
2023/04/10 12:26:13;;;;;;;2.90;2.70;;;21.60;36.20;;;;;;5053391;28;20943;-58
2023/04/10 12:28:41;;;;;;;2.73;2.53;;;21.80;35.80;;;;;;5052151;28;20457;-58
2023/04/10 12:31:08;;;;;;;3.53;2.40;;;22.00;36.00;;;;;;5053918;28;20450;-58
2023/04/10 12:33:36;;;;;;;2.60;2.40;;;22.30;35.60;;;;;;5053731;28;20525;-57
2023/04/10 12:36:02;;;;;;;2.57;2.37;;;22.40;33.50;;;;;;5053772;28;20449;-58
2023/04/10 12:38:38;;;;;;;2.53;2.17;;;22.40;33.50;;;;;;5053824;28;20472;-58
2023/04/10 12:41:06;;;;;;;2.43;2.23;;;22.50;34.00;;;;;;5053516;28;20449;-57
2023/04/10 12:43:35;;;;;;;2.70;2.50;;;22.30;33.70;;;;;;5054088;28;20464;-58
2023/04/10 12:46:02;;;;;;;2.80;2.60;;;22.50;34.40;;;;;;5053715;28;20445;-58
2023/04/10 12:48:29;;;;;;;2.50;2.40;;;22.70;34.80;;;;;;5053745;28;20537;-58